Memphis International Airport
KMEM : now visible

Airfield :











YOU CAN JOIN US ON...

 
LOGIN :

Register | Disclaimer

   EN    FR    IT 

 









Legend :    VFR   Marginal VFR   IFR   Intensive IFR   Very Intensive IFR
Visi :
Ceiling :
>= 8 km
>= 3000ft
5 to 8 km
1000 to 3000 ft
1500m to 5 km
500 to 1000 ft
800 to 1500m
200 to 500 ft
< 800m
< 200 ft
Symbols :   Thunderstorms  Fog  Heavy snow  Heavy precipitations  Wind > 20 kt






- Airport Elevation : 341 ft
- IATA code : MEM


KMEM - Memphis International

CURRENT METAR :
  • 231454Z 18006KT 10SM OVC070 09/00 A3021 RMK AO2 SLP231 T00890000 53001

EXPIRED METARs :
  • 231354Z 17008KT 10SM OVC070 08/00 A3021 RMK AO2 SLP230 T00780000
  • 231254Z 19005KT 10SM OVC070 07/M01 A3021 RMK AO2 SLP229 T00721006

TAF KMEM
Valid from the 23 at 15:00 until the 24 at 18:00 UTC


231500Z 2315/2418 19007KT P6SM VCSH BKN060
FM240100 16007KT P6SM -SHRA SCT025 OVC045
FM240500 16011KT 5SM -SHRA OVC018
FM240900 17011G19KT 5SM -SHRA OVC012 WS020/20040KT
FM241400 18014G18KT 4SM -SHRA OVC008 WS020/20045KT



MET'MAP, your aeronautical weather chart ! - Copyright ORBIFLY December 2007 - Disclaimer

ORBIFLY MET'MAP TEAM :

Programming & Development : Alexandra Zaïnal
Concept & original design : Baudouin d'Aumeries
Assistance for programming : Marc-Olivier Méhu
Technical & hardware support : Manuel Goepfert

Contact : metmap@orbifly.com




SOURCES & CREDITS :

   NOAA       Earth
Advisory